Moose Pass, AK

2:56 AM AKDT on October 02, 2014 (GMT -0800)
RAWS BROADVIEW AK US | Change Station
CLOSE
Current Station
Personal Weather Station
Location: Cooper Landing, AK
Elevation: 630 ft
Nearby Weather Stations

Elev 630 ft 60.49 °N, 149.76 °W | Updated 1 hour ago

Overcast
Overcast
38 °F
Feels Like 35 °F
N
4
Wind Variable Wind from East
Gusts 8.0 mph

Today
High -- | Low -- °F
--% Chance of Precip.
Yesterday
High -- | Low -- °F
Precip. -- in
8:05 AM 7:25 PM
First Quarter, 57% visible
Pressure 30.17 in
Visibility 10.0 miles
Clouds Overcast 4900 ft
Windchill 35 °F
Dew Point 23 °F
Humidity 54%
Rainfall 0.00 in
Snow Depth 20 in , 0 in , 0 in
UV 0 out of 12
Pollen Not available.
Air Quality Not available.
Flu Activity Not available.
METAR PATO 021053Z AUTO 12004KT 10SM OVC049 07/M03 A3017 RMK AO2 SLP215 T00721028 TSNO

More Conditions Fewer Conditions

Pressure 30.17 in
Visibility 10.0 miles
Clouds Overcast 4900 ft
Windchill 35 °F
Dew Point 23 °F
Humidity 54%
Rainfall 0.00 in
Snow Depth 20 in , 0 in , 0 in
UV 0 out of 12
Pollen Not available.
Air Quality Not available.
Flu Activity Not available.
METAR PATO 021053Z AUTO 12004KT 10SM OVC049 07/M03 A3017 RMK AO2 SLP215 T00721028 TSNO

More Conditions Fewer Conditions

10-Day Weather Forecast

Almanac

Astronomy

Oct. 02, 2014 Rise Set
Actual Time 8:05 AM AKDT 7:25 PM AKDT
Civil Twilight 7:23 AM AKDT 8:07 PM AKDT
Nautical Twilight 6:34 AM AKDT 8:56 PM AKDT
Astronomical Twilight 5:41 AM AKDT 9:48 PM AKDT
Moon 5:00 PM AKDT 12:04 AM AKDT
Length of Visible Light 12h 43m
Length of Day
11h 19m
Tomorrow will be 5m 31s shorter.
First Quarter, 57% of the Moon is Illuminated
Today
First Quarter
Oct 8
Full
Oct 15
Last Quarter
Oct 23
New
Oct 30
First Quarter

Today's Extremes

State Highs State Lows

Community

WunderPhotos

Upload Photos

1,758,210 photos uploaded!

WunderBlogs® & News

Nearby

Snow Depth

Station Depth Elevation
Imnaviat Creek 20 in 3050 ft
Cooper Lake 0 in 1200 ft
Long Lake 0 in 820 ft
MF Bradley River 2 in 2300 ft
Upper Tsaina River 0 in 1750 ft

Earthquake Activity

City Distance Mag. Time & Date
No recent earthquake activity has been reported nearby.
Minimum magnitude displayed is 2.5.

Coastal Water Temperatures

Place Temperature
No Stations Reporting

Nearby Weather Stations